createdAt,value
2022-11-15T00:00:58.496Z,27.60
2022-11-15T00:03:27.781Z,25.00
2022-11-15T00:05:54.918Z,20.30
2022-11-15T00:08:22.011Z,17.70
2022-11-15T00:10:56.869Z,16.80
2022-11-15T00:13:24.205Z,20.20
2022-11-15T00:15:51.137Z,27.80
2022-11-15T00:18:18.399Z,35.70
2022-11-15T00:20:45.460Z,43.60
2022-11-15T00:23:12.772Z,46.90
2022-11-15T00:25:40.022Z,46.80
2022-11-15T00:28:07.024Z,44.80
2022-11-15T00:30:35.793Z,42.90
2022-11-15T00:33:04.473Z,39.50
2022-11-15T00:35:34.540Z,37.30
2022-11-15T00:38:02.054Z,40.80
2022-11-15T00:40:29.133Z,52.60
2022-11-15T00:42:56.405Z,62.60
2022-11-15T00:45:23.676Z,73.70
2022-11-15T00:47:50.952Z,81.40
2022-11-15T00:50:18.234Z,91.60
2022-11-15T00:52:45.379Z,93.20
2022-11-15T00:55:17.433Z,95.60
2022-11-15T00:57:46.528Z,98.00
2022-11-15T01:00:14.089Z,99.90
2022-11-15T01:02:41.092Z,99.90
2022-11-15T01:05:09.193Z,99.90
2022-11-15T01:07:36.785Z,99.90
2022-11-15T01:10:04.695Z,99.90
2022-11-15T01:12:31.983Z,99.90
2022-11-15T01:14:58.970Z,99.90
2022-11-15T01:17:26.071Z,99.90
2022-11-15T01:19:53.062Z,99.90
2022-11-15T01:22:20.319Z,99.90
2022-11-15T01:24:47.315Z,99.90
2022-11-15T01:27:14.267Z,99.90
2022-11-15T01:29:41.275Z,99.90
2022-11-15T01:32:08.384Z,99.90
2022-11-15T01:34:35.327Z,99.90
2022-11-15T01:37:03.063Z,99.90
2022-11-15T01:39:30.030Z,99.90
2022-11-15T01:41:57.007Z,99.90
2022-11-15T01:44:38.943Z,99.90
2022-11-15T01:47:17.009Z,99.90
2022-11-15T01:49:56.695Z,99.90
2022-11-15T01:52:27.081Z,99.90
2022-11-15T01:55:20.932Z,99.90
2022-11-15T01:57:51.462Z,99.90
2022-11-15T02:00:18.976Z,99.90
2022-11-15T02:02:45.898Z,99.90
2022-11-15T02:05:12.802Z,99.90
2022-11-15T02:07:39.986Z,99.90
2022-11-15T02:10:13.079Z,99.90
2022-11-15T02:12:40.787Z,99.90
2022-11-15T02:15:09.793Z,99.90
2022-11-15T02:17:49.612Z,99.90
2022-11-15T02:21:03.986Z,99.90
2022-11-15T02:23:40.029Z,99.90
2022-11-15T02:26:47.262Z,99.90
2022-11-15T02:29:26.926Z,99.90
2022-11-15T02:32:26.240Z,99.30
2022-11-15T02:35:02.362Z,97.50
2022-11-15T02:37:59.724Z,94.80
2022-11-15T02:40:32.625Z,92.10
2022-11-15T02:43:28.268Z,90.80
2022-11-15T02:46:05.128Z,87.00
2022-11-15T02:48:33.576Z,83.90
2022-11-15T02:51:01.680Z,85.20
2022-11-15T02:53:34.991Z,89.40
2022-11-15T02:56:02.395Z,91.00
2022-11-15T02:58:47.625Z,91.40
2022-11-15T03:01:42.468Z,94.10
2022-11-15T03:04:38.506Z,96.20
2022-11-15T03:07:35.905Z,99.90
2022-11-15T03:10:22.083Z,95.60
2022-11-15T03:13:00.843Z,97.60
2022-11-15T03:15:45.668Z,99.90
2022-11-15T03:18:25.207Z,99.90
2022-11-15T03:20:53.605Z,99.90
2022-11-15T03:23:20.771Z,99.90
2022-11-15T03:25:51.295Z,99.90
2022-11-15T03:28:26.303Z,99.90
2022-11-15T03:30:55.441Z,99.90
2022-11-15T03:33:23.245Z,99.90
2022-11-15T03:35:51.074Z,99.90
2022-11-15T03:38:27.605Z,99.90
2022-11-15T03:41:05.378Z,99.90
2022-11-15T03:43:50.208Z,99.90
2022-11-15T03:46:33.434Z,99.90
2022-11-15T03:49:28.603Z,99.90
2022-11-15T03:51:58.983Z,99.90
2022-11-15T03:54:26.075Z,99.90
2022-11-15T03:56:53.220Z,99.90
2022-11-15T03:59:20.301Z,99.90
2022-11-15T04:01:47.264Z,99.90
2022-11-15T04:04:14.245Z,99.90
2022-11-15T04:06:41.440Z,99.90
2022-11-15T04:09:08.430Z,99.90
2022-11-15T04:11:35.639Z,99.90
2022-11-15T04:14:02.865Z,99.90
2022-11-15T04:16:29.854Z,99.90
2022-11-15T04:19:15.203Z,99.90
2022-11-15T04:22:00.922Z,99.90
2022-11-15T04:24:27.848Z,99.90
2022-11-15T04:26:55.060Z,99.90
2022-11-15T04:29:36.992Z,99.90
2022-11-15T04:32:08.165Z,1.00
2022-11-15T04:34:35.404Z,1.00
2022-11-15T04:37:14.251Z,1.00
2022-11-15T04:39:42.146Z,1.00
2022-11-15T04:42:09.887Z,1.00
2022-11-15T04:44:37.188Z,1.00
2022-11-15T04:47:04.252Z,1.00
2022-11-15T04:49:31.213Z,1.00
2022-11-15T04:51:58.169Z,1.00
2022-11-15T04:54:25.251Z,1.00
2022-11-15T04:56:52.201Z,18.90
2022-11-15T04:59:19.371Z,49.40
2022-11-15T05:01:46.404Z,73.20
2022-11-15T05:04:22.373Z,94.20
2022-11-15T05:06:51.265Z,99.90
2022-11-15T05:09:21.854Z,99.90
2022-11-15T05:11:49.151Z,99.90
2022-11-15T05:14:16.598Z,99.90
2022-11-15T05:16:44.130Z,99.90
2022-11-15T05:19:11.320Z,94.40
2022-11-15T05:21:38.339Z,56.40
2022-11-15T05:24:05.737Z,33.30
2022-11-15T05:26:32.929Z,5.00
2022-11-15T05:29:00.608Z,1.00
2022-11-15T05:31:28.335Z,1.00
2022-11-15T05:33:57.821Z,1.00
2022-11-15T05:36:43.717Z,1.00
2022-11-15T05:39:10.607Z,1.00
2022-11-15T05:41:54.166Z,1.00
2022-11-15T05:44:26.632Z,1.00
2022-11-15T05:46:56.738Z,1.00
2022-11-15T05:49:26.136Z,1.00
2022-11-15T05:51:54.128Z,1.00
2022-11-15T05:54:22.202Z,1.00
2022-11-15T05:56:50.415Z,1.00
2022-11-15T05:59:18.021Z,1.00
2022-11-15T06:01:45.006Z,1.00
2022-11-15T06:04:11.899Z,1.00
2022-11-15T06:06:38.823Z,1.00
2022-11-15T06:09:05.684Z,1.00
2022-11-15T06:11:32.530Z,1.00
2022-11-15T06:13:59.483Z,1.00
2022-11-15T06:16:26.351Z,1.00
2022-11-15T06:18:53.287Z,1.00
2022-11-15T06:21:20.591Z,1.00
2022-11-15T06:23:47.604Z,1.00
2022-11-15T06:26:14.541Z,1.00
2022-11-15T06:28:41.629Z,1.00
2022-11-15T06:31:12.159Z,99.90
2022-11-15T06:33:40.264Z,99.90
2022-11-15T06:36:14.530Z,99.90
2022-11-15T06:38:45.328Z,99.90
2022-11-15T06:41:14.021Z,99.90
2022-11-15T06:43:41.641Z,99.90
2022-11-15T06:46:08.995Z,99.90
2022-11-15T06:48:37.321Z,99.90
2022-11-15T06:51:05.580Z,99.90
2022-11-15T06:53:34.434Z,99.90
2022-11-15T06:56:03.198Z,99.90
2022-11-15T06:58:30.564Z,99.90
2022-11-15T07:01:02.755Z,99.90
2022-11-15T07:03:30.632Z,99.90
2022-11-15T07:06:04.218Z,99.90
2022-11-15T07:08:33.679Z,99.90
2022-11-15T07:11:02.913Z,99.90
2022-11-15T07:13:35.160Z,1.00
2022-11-15T07:16:08.602Z,1.00
2022-11-15T07:18:40.259Z,1.00
2022-11-15T07:21:09.684Z,1.00
2022-11-15T07:23:40.154Z,1.00
2022-11-15T07:26:08.118Z,1.00
2022-11-15T07:28:35.610Z,1.00
2022-11-15T07:31:08.384Z,1.00
2022-11-15T07:33:35.878Z,1.00
2022-11-15T07:36:05.282Z,1.00
2022-11-15T07:38:32.606Z,1.00
2022-11-15T07:41:05.463Z,1.00
2022-11-15T07:43:35.095Z,1.00
2022-11-15T07:46:11.215Z,1.00
2022-11-15T07:48:44.571Z,1.00
2022-11-15T07:51:16.729Z,1.00
2022-11-15T07:53:46.986Z,1.00
2022-11-15T07:56:14.532Z,1.00
2022-11-15T07:58:41.733Z,1.00
2022-11-15T08:01:11.276Z,1.00
2022-11-15T08:03:38.854Z,1.00
2022-11-15T08:06:06.361Z,1.00
2022-11-15T08:08:33.455Z,1.00
2022-11-15T08:11:01.020Z,1.00
2022-11-15T08:13:28.267Z,1.00
2022-11-15T08:16:02.331Z,1.00
2022-11-15T08:18:29.231Z,1.00
2022-11-15T08:21:00.288Z,1.00
2022-11-15T08:23:27.353Z,1.00
2022-11-15T08:25:59.603Z,1.00
2022-11-15T08:28:26.462Z,1.00
2022-11-15T08:30:53.754Z,1.00
2022-11-15T08:33:20.656Z,1.00
2022-11-15T08:35:47.667Z,1.00
2022-11-15T08:38:14.566Z,1.00
2022-11-15T08:40:42.295Z,1.00
2022-11-15T08:43:09.344Z,1.00
2022-11-15T08:45:36.651Z,1.00
2022-11-15T08:48:04.827Z,1.00
2022-11-15T08:50:31.806Z,1.00
2022-11-15T08:52:59.106Z,11.30
2022-11-15T08:55:26.068Z,62.00
2022-11-15T08:57:53.043Z,99.90
2022-11-15T09:00:21.054Z,99.90
2022-11-15T09:02:48.010Z,99.90
2022-11-15T09:05:16.693Z,99.90
2022-11-15T09:07:44.074Z,99.90
2022-11-15T09:10:11.374Z,99.90
2022-11-15T09:12:38.258Z,1.00
2022-11-15T09:15:07.237Z,1.00
2022-11-15T09:17:34.108Z,1.00
2022-11-15T09:20:00.996Z,1.00
2022-11-15T09:22:27.998Z,1.00
2022-11-15T09:24:54.870Z,1.00
2022-11-15T09:27:21.748Z,1.00
2022-11-15T09:29:48.628Z,1.00
2022-11-15T09:32:15.548Z,1.00
2022-11-15T09:34:42.441Z,1.00
2022-11-15T09:37:09.412Z,1.00
2022-11-15T09:39:36.330Z,1.00
2022-11-15T09:42:15.295Z,1.00
2022-11-15T09:44:51.377Z,1.00
2022-11-15T09:47:21.426Z,1.00
2022-11-15T09:49:58.734Z,99.90
2022-11-15T09:52:26.237Z,99.90
2022-11-15T09:54:55.724Z,99.90
2022-11-15T09:57:39.978Z,99.90
2022-11-15T10:03:28.312Z,99.90
2022-11-15T10:06:00.252Z,99.90
2022-11-15T10:08:32.942Z,99.90
2022-11-15T10:13:53.284Z,99.90
2022-11-15T10:16:25.848Z,99.90
2022-11-15T10:19:11.496Z,99.90
2022-11-15T10:21:53.973Z,99.90
2022-11-15T10:24:26.524Z,99.90
2022-11-15T10:26:56.119Z,99.90
2022-11-15T10:29:27.112Z,99.90
2022-11-15T10:31:54.542Z,99.90
2022-11-15T10:34:23.746Z,99.90
2022-11-15T10:37:00.245Z,99.90
2022-11-15T10:39:27.234Z,99.90
2022-11-15T10:41:54.716Z,99.90
2022-11-15T10:44:27.687Z,1.00
2022-11-15T10:46:57.710Z,1.00
2022-11-15T10:49:30.312Z,1.00
2022-11-15T10:52:01.671Z,1.00
2022-11-15T10:54:37.297Z,1.00
2022-11-15T10:57:26.967Z,1.00
2022-11-15T10:59:59.206Z,1.00
2022-11-15T11:02:36.947Z,21.60
2022-11-15T11:05:06.933Z,99.90
2022-11-15T11:07:35.981Z,99.90
2022-11-15T11:10:44.536Z,99.90
2022-11-15T11:13:29.543Z,99.90
2022-11-15T11:16:07.318Z,1.00
2022-11-15T11:19:16.559Z,1.00
2022-11-15T11:22:14.583Z,1.00
2022-11-15T11:25:16.018Z,26.70
2022-11-15T11:27:56.883Z,99.90
2022-11-15T11:30:42.932Z,99.90
2022-11-15T11:33:25.026Z,99.90
2022-11-15T11:36:19.716Z,1.00
2022-11-15T11:39:22.304Z,1.00
2022-11-15T11:42:11.258Z,1.00
2022-11-15T11:44:50.125Z,99.90
2022-11-15T11:47:25.793Z,99.90
2022-11-15T11:49:56.778Z,99.90
2022-11-15T11:52:46.082Z,99.90
2022-11-15T11:55:42.402Z,99.90
2022-11-15T11:58:41.259Z,99.30
2022-11-15T12:01:14.343Z,1.00
2022-11-15T12:03:41.157Z,99.90
2022-11-15T12:06:28.530Z,99.90
2022-11-15T12:09:02.930Z,1.00
2022-11-15T12:11:29.786Z,99.90
2022-11-15T12:14:02.581Z,99.90
2022-11-15T12:16:34.472Z,99.90
2022-11-15T12:19:04.231Z,99.90
2022-11-15T12:22:01.444Z,31.90
2022-11-15T12:24:30.991Z,1.00
2022-11-15T12:27:15.321Z,1.00
2022-11-15T12:29:53.304Z,1.00
2022-11-15T12:32:35.913Z,1.00
2022-11-15T12:35:06.411Z,1.00
2022-11-15T12:37:39.388Z,1.00
2022-11-15T12:40:25.031Z,1.00
2022-11-15T12:43:13.919Z,1.00
2022-11-15T12:45:46.091Z,1.00
2022-11-15T12:48:18.823Z,1.00
2022-11-15T12:50:51.773Z,1.00
2022-11-15T12:53:25.253Z,1.00
2022-11-15T12:56:10.768Z,1.00
2022-11-15T12:58:48.342Z,1.00
2022-11-15T13:01:33.738Z,1.00
2022-11-15T13:04:19.598Z,1.00
2022-11-15T13:06:55.816Z,1.00
2022-11-15T13:09:34.925Z,1.00
2022-11-15T13:12:06.044Z,1.00
2022-11-15T13:14:40.466Z,1.00
2022-11-15T13:17:31.279Z,1.00
2022-11-15T13:20:01.629Z,1.00
2022-11-15T13:22:47.875Z,1.00
2022-11-15T13:25:36.769Z,1.00
2022-11-15T13:28:10.919Z,1.00
2022-11-15T13:30:38.771Z,1.00
2022-11-15T13:33:17.516Z,1.00
2022-11-15T13:35:48.915Z,1.00
2022-11-15T13:38:34.585Z,1.00
2022-11-15T13:41:31.374Z,1.00
2022-11-15T13:43:59.591Z,99.90
2022-11-15T13:46:34.765Z,99.90
2022-11-15T13:49:04.512Z,99.90
2022-11-15T13:51:56.104Z,99.90
2022-11-15T13:54:36.556Z,1.00
2022-11-15T13:57:10.549Z,99.90
2022-11-15T13:59:51.032Z,1.00
2022-11-15T14:02:27.367Z,1.00
2022-11-15T14:04:59.336Z,1.00
2022-11-15T14:07:29.792Z,1.00
2022-11-15T14:09:57.288Z,1.00
2022-11-15T14:12:27.235Z,1.00
2022-11-15T14:14:54.673Z,1.00
2022-11-15T14:17:47.192Z,1.00
2022-11-15T14:20:35.322Z,1.00
2022-11-15T14:23:19.516Z,1.00
2022-11-15T14:25:58.038Z,1.00
2022-11-15T14:28:24.894Z,1.00
2022-11-15T14:30:54.276Z,1.00
2022-11-15T14:33:34.347Z,1.10
2022-11-15T14:36:21.786Z,42.20
2022-11-15T14:38:49.260Z,99.90
2022-11-15T14:41:21.677Z,99.90
2022-11-15T14:43:49.234Z,99.90
2022-11-15T14:46:16.255Z,99.90
2022-11-15T14:48:43.151Z,99.90
2022-11-15T14:51:18.777Z,99.90
2022-11-15T14:53:46.683Z,99.90
2022-11-15T14:56:14.104Z,99.90
2022-11-15T14:58:41.307Z,1.00
2022-11-15T15:01:27.463Z,1.00
2022-11-15T15:03:59.494Z,1.00
2022-11-15T15:06:27.039Z,1.00
2022-11-15T15:08:53.998Z,1.00
2022-11-15T15:11:25.073Z,1.00
2022-11-15T15:13:53.490Z,1.00
2022-11-15T15:16:20.742Z,1.00
2022-11-15T15:18:48.119Z,1.00
2022-11-15T15:21:28.081Z,15.40
2022-11-15T15:23:56.884Z,94.00
2022-11-15T15:26:26.901Z,99.90
2022-11-15T15:28:53.904Z,99.90
2022-11-15T15:31:20.844Z,99.90
2022-11-15T15:33:47.757Z,99.90
2022-11-15T15:36:19.109Z,99.90
2022-11-15T15:38:47.696Z,1.00
2022-11-15T15:41:18.125Z,1.00
2022-11-15T15:43:45.351Z,1.00
2022-11-15T15:46:18.027Z,1.00
2022-11-15T15:48:45.601Z,46.10
2022-11-15T15:51:19.634Z,99.90
2022-11-15T15:53:47.879Z,99.90
2022-11-15T15:56:15.380Z,99.90
2022-11-15T15:58:42.337Z,1.00
2022-11-15T16:01:09.278Z,1.00
2022-11-15T16:03:36.187Z,1.00
2022-11-15T16:06:05.320Z,12.10
2022-11-15T16:08:47.498Z,99.90
2022-11-15T16:11:14.866Z,99.90
2022-11-15T16:13:41.724Z,99.90
2022-11-15T16:16:13.461Z,1.00
2022-11-15T16:18:40.340Z,1.00
2022-11-15T16:21:08.907Z,52.00
2022-11-15T16:23:35.890Z,99.90
2022-11-15T16:26:04.098Z,99.90
2022-11-15T16:28:33.455Z,1.00
2022-11-15T16:31:06.788Z,1.00
2022-11-15T16:33:34.121Z,23.50
2022-11-15T16:36:01.828Z,99.90
2022-11-15T16:38:28.885Z,99.90
2022-11-15T16:40:55.910Z,1.00
2022-11-15T16:43:23.123Z,1.00
2022-11-15T16:45:51.370Z,99.90
2022-11-15T16:48:26.954Z,99.90
2022-11-15T16:50:58.537Z,1.00
2022-11-15T16:53:27.071Z,1.00
2022-11-15T16:55:55.302Z,99.90
2022-11-15T16:58:23.006Z,99.90
2022-11-15T17:00:54.363Z,1.00
2022-11-15T17:03:24.803Z,1.00
2022-11-15T17:05:52.127Z,99.90
2022-11-15T17:08:21.991Z,99.90
2022-11-15T17:10:49.156Z,1.00
2022-11-15T17:13:16.380Z,1.00
2022-11-15T17:15:43.667Z,3.40
2022-11-15T17:18:15.496Z,99.90
2022-11-15T17:20:43.399Z,99.90
2022-11-15T17:23:14.718Z,1.00
2022-11-15T17:25:42.002Z,1.00
2022-11-15T17:28:08.907Z,20.70
2022-11-15T17:30:35.877Z,99.90
2022-11-15T17:33:02.851Z,99.90
2022-11-15T17:35:29.799Z,1.00
2022-11-15T17:37:56.651Z,1.00
2022-11-15T17:40:23.679Z,1.00
2022-11-15T17:42:50.621Z,21.00
2022-11-15T17:45:18.507Z,99.90
2022-11-15T17:47:45.393Z,99.90
2022-11-15T17:50:12.380Z,99.90
2022-11-15T17:52:39.330Z,99.90
2022-11-15T17:55:07.141Z,99.90
2022-11-15T17:57:34.009Z,99.90
2022-11-15T18:00:00.971Z,99.90
2022-11-15T18:02:28.752Z,99.90
2022-11-15T18:04:55.631Z,99.90
2022-11-15T18:07:22.631Z,99.90
2022-11-15T18:09:49.950Z,99.90
2022-11-15T18:12:17.114Z,99.90
2022-11-15T18:14:44.031Z,99.90
2022-11-15T18:17:10.886Z,99.90
2022-11-15T18:19:37.902Z,99.90
2022-11-15T18:22:07.279Z,99.90
2022-11-15T18:24:35.937Z,99.90
2022-11-15T18:27:05.142Z,99.90
2022-11-15T18:29:34.629Z,99.90
2022-11-15T18:32:05.135Z,99.90
2022-11-15T18:34:35.662Z,99.90
2022-11-15T18:37:03.452Z,99.90
2022-11-15T18:39:30.872Z,99.90
2022-11-15T18:41:58.235Z,99.90
2022-11-15T18:44:25.187Z,99.90
2022-11-15T18:46:52.157Z,99.90
2022-11-15T18:49:20.407Z,99.90
2022-11-15T18:51:47.751Z,99.90
2022-11-15T18:54:17.542Z,99.90
2022-11-15T18:56:45.727Z,99.90
2022-11-15T18:59:13.434Z,99.90
2022-11-15T19:01:42.857Z,99.90
2022-11-15T19:04:12.858Z,99.90
2022-11-15T19:06:42.023Z,99.90
2022-11-15T19:09:10.866Z,99.90
2022-11-15T19:11:40.084Z,99.90
2022-11-15T19:14:13.331Z,99.90
2022-11-15T19:16:42.101Z,99.90
2022-11-15T19:19:13.634Z,99.90
2022-11-15T19:21:40.549Z,99.90
2022-11-15T19:24:07.665Z,99.90
2022-11-15T19:26:37.861Z,99.90
2022-11-15T19:29:06.833Z,99.90
2022-11-15T19:31:34.723Z,99.90
2022-11-15T19:34:06.875Z,99.90
2022-11-15T19:36:36.447Z,99.90
2022-11-15T19:39:09.743Z,99.90
2022-11-15T19:41:38.719Z,99.90
2022-11-15T19:44:06.939Z,99.90
2022-11-15T19:46:34.738Z,99.90
2022-11-15T19:49:01.729Z,99.90
2022-11-15T19:51:30.858Z,99.90
2022-11-15T19:54:06.743Z,99.90
2022-11-15T19:56:35.562Z,99.90
2022-11-15T19:59:05.337Z,99.90
2022-11-15T20:01:36.388Z,99.90
2022-11-15T20:04:03.895Z,99.90
2022-11-15T20:06:35.647Z,99.90
2022-11-15T20:09:03.017Z,99.90
2022-11-15T20:11:30.138Z,99.90
2022-11-15T20:13:58.914Z,99.90
2022-11-15T20:16:26.630Z,99.90
2022-11-15T20:18:54.602Z,99.90
2022-11-15T20:21:22.080Z,99.90
2022-11-15T20:23:51.066Z,99.90
2022-11-15T20:26:19.425Z,99.90
2022-11-15T20:28:48.089Z,99.90
2022-11-15T20:31:15.985Z,99.90
2022-11-15T20:33:42.940Z,99.90
2022-11-15T20:36:15.990Z,99.90
2022-11-15T20:38:43.633Z,99.90
2022-11-15T20:41:11.878Z,99.90
2022-11-15T20:43:39.044Z,99.90
2022-11-15T20:46:05.955Z,99.90
2022-11-15T20:48:33.207Z,99.90
2022-11-15T20:51:06.474Z,99.90
2022-11-15T20:53:34.369Z,99.90
2022-11-15T20:56:07.897Z,99.90
2022-11-15T20:58:36.537Z,99.90
2022-11-15T21:01:05.143Z,99.90
2022-11-15T21:03:33.649Z,99.90
2022-11-15T21:06:01.006Z,99.90
2022-11-15T21:08:28.014Z,99.90
2022-11-15T21:11:13.313Z,99.90
2022-11-15T21:13:40.281Z,99.90
2022-11-15T21:16:07.746Z,99.90
2022-11-15T21:18:34.844Z,99.90
2022-11-15T21:21:05.909Z,99.90
2022-11-15T21:23:33.863Z,99.90
2022-11-15T21:26:00.744Z,99.90
2022-11-15T21:28:27.620Z,99.90
2022-11-15T21:30:56.690Z,99.90
2022-11-15T21:33:24.056Z,99.90
2022-11-15T21:35:51.718Z,99.90
2022-11-15T21:38:18.874Z,99.90
2022-11-15T21:40:46.027Z,99.90
2022-11-15T21:43:12.922Z,99.90
2022-11-15T21:45:40.597Z,99.90
2022-11-15T21:48:08.336Z,99.90
2022-11-15T21:50:35.214Z,99.90
2022-11-15T21:53:02.168Z,99.90
2022-11-15T21:55:29.087Z,99.90
2022-11-15T21:57:56.127Z,99.90
2022-11-15T22:00:41.821Z,99.90
2022-11-15T22:03:09.763Z,99.90
2022-11-15T22:05:36.701Z,99.90
2022-11-15T22:08:03.651Z,99.90
2022-11-15T22:10:30.565Z,99.90
2022-11-15T22:12:57.436Z,99.90
2022-11-15T22:15:24.595Z,99.90
2022-11-15T22:18:00.897Z,99.90
2022-11-15T22:20:44.200Z,99.90
2022-11-15T22:23:12.006Z,99.90
2022-11-15T22:25:39.006Z,99.90
2022-11-15T22:28:05.956Z,99.90
2022-11-15T22:30:33.022Z,99.90
2022-11-15T22:33:00.020Z,99.90
2022-11-15T22:35:27.102Z,99.90
2022-11-15T22:37:54.048Z,99.90
2022-11-15T22:40:20.969Z,99.90
2022-11-15T22:42:47.937Z,99.90
2022-11-15T22:45:14.897Z,99.90
2022-11-15T22:47:41.815Z,99.90
2022-11-15T22:50:09.323Z,99.90
2022-11-15T22:52:36.576Z,99.90
2022-11-15T22:55:03.717Z,99.90
2022-11-15T22:57:30.781Z,99.90
2022-11-15T22:59:57.777Z,99.90
2022-11-15T23:02:26.823Z,99.90
2022-11-15T23:04:53.765Z,99.90
2022-11-15T23:07:20.831Z,99.90
2022-11-15T23:09:52.233Z,99.90
2022-11-15T23:12:37.813Z,99.90
2022-11-15T23:15:05.224Z,99.90
2022-11-15T23:17:32.613Z,99.90
2022-11-15T23:20:11.121Z,99.90
2022-11-15T23:22:49.403Z,99.90
2022-11-15T23:25:16.426Z,99.90
2022-11-15T23:27:43.423Z,99.90
2022-11-15T23:30:29.127Z,99.90
2022-11-15T23:33:14.644Z,99.90
2022-11-15T23:35:41.645Z,99.90
2022-11-15T23:38:08.604Z,99.90
2022-11-15T23:40:35.574Z,99.90
2022-11-15T23:43:02.581Z,99.90
2022-11-15T23:45:29.834Z,99.90
2022-11-15T23:48:01.105Z,99.90
2022-11-15T23:50:28.531Z,99.90
2022-11-15T23:52:55.482Z,99.90
2022-11-15T23:55:22.458Z,99.90
2022-11-15T23:57:49.406Z,99.90
